createdAt,value
2023-04-06T00:00:53.737Z,13.89
2023-04-06T00:03:20.851Z,13.88
2023-04-06T00:05:48.916Z,13.76
2023-04-06T00:08:15.762Z,13.77
2023-04-06T00:10:42.680Z,13.84
2023-04-06T00:13:09.505Z,13.84
2023-04-06T00:15:36.273Z,13.82
2023-04-06T00:18:04.401Z,13.78
2023-04-06T00:20:31.438Z,13.60
2023-04-06T00:22:58.207Z,13.60
2023-04-06T00:25:25.036Z,13.50
2023-04-06T00:27:51.825Z,13.61
2023-04-06T00:30:19.129Z,13.52
2023-04-06T00:32:46.043Z,13.31
2023-04-06T00:35:12.997Z,13.36
2023-04-06T00:37:39.837Z,13.15
2023-04-06T00:40:07.493Z,13.15
2023-04-06T00:42:34.384Z,13.20
2023-04-06T00:45:02.264Z,13.21
2023-04-06T00:47:29.696Z,13.24
2023-04-06T00:49:57.947Z,13.17
2023-04-06T00:52:24.861Z,13.19
2023-04-06T00:54:53.281Z,13.20
2023-04-06T00:57:21.542Z,13.25
2023-04-06T00:59:54.913Z,13.24
2023-04-06T01:02:22.083Z,13.20
2023-04-06T01:04:53.518Z,13.19
2023-04-06T01:07:26.941Z,12.99
2023-04-06T01:10:11.109Z,12.76
2023-04-06T01:12:39.878Z,12.71
2023-04-06T01:15:14.667Z,12.57
2023-04-06T01:17:44.234Z,12.60
2023-04-06T01:20:15.484Z,12.47
2023-04-06T01:22:42.284Z,12.48
2023-04-06T01:25:10.557Z,12.27
2023-04-06T01:27:56.156Z,12.35
2023-04-06T01:30:29.092Z,12.32
2023-04-06T01:33:02.334Z,12.34
2023-04-06T01:35:54.372Z,12.29
2023-04-06T01:38:21.647Z,12.27
2023-04-06T01:40:49.361Z,12.18
2023-04-06T01:43:18.857Z,12.18
2023-04-06T01:46:00.318Z,12.18
2023-04-06T01:48:32.884Z,12.13
2023-04-06T01:51:03.116Z,11.96
2023-04-06T01:53:33.682Z,11.94
2023-04-06T01:56:05.548Z,12.00
2023-04-06T01:58:39.240Z,12.08
2023-04-06T02:01:06.641Z,12.04
2023-04-06T02:03:46.751Z,12.18
2023-04-06T02:06:13.515Z,12.14
2023-04-06T02:08:41.716Z,12.18
2023-04-06T02:11:08.853Z,12.19
2023-04-06T02:13:42.906Z,12.06
2023-04-06T02:16:10.787Z,12.07
2023-04-06T02:18:37.651Z,12.04
2023-04-06T02:21:05.048Z,11.96
2023-04-06T02:23:31.841Z,12.00
2023-04-06T02:25:58.580Z,12.02
2023-04-06T02:28:25.498Z,11.90
2023-04-06T02:30:52.294Z,11.98
2023-04-06T02:33:20.802Z,11.84
2023-04-06T02:35:48.391Z,11.85
2023-04-06T02:38:15.397Z,11.85
2023-04-06T02:40:42.158Z,11.81
2023-04-06T02:43:29.210Z,11.78
2023-04-06T02:46:04.414Z,11.57
2023-04-06T02:48:37.260Z,11.65
2023-04-06T02:51:04.836Z,11.61
2023-04-06T02:53:31.634Z,11.62
2023-04-06T02:55:58.763Z,11.57
2023-04-06T02:58:32.425Z,11.56
2023-04-06T03:00:59.240Z,11.48
2023-04-06T03:03:26.332Z,11.45
2023-04-06T03:05:55.380Z,11.44
2023-04-06T03:08:27.280Z,11.41
2023-04-06T03:10:54.076Z,11.34
2023-04-06T03:13:21.887Z,11.40
2023-04-06T03:15:58.537Z,11.44
2023-04-06T03:18:26.867Z,11.36
2023-04-06T03:20:56.417Z,11.45
2023-04-06T03:23:28.812Z,11.48
2023-04-06T03:26:01.365Z,11.40
2023-04-06T03:28:28.197Z,11.48
2023-04-06T03:31:01.016Z,11.55
2023-04-06T03:33:45.483Z,11.54
2023-04-06T03:36:19.757Z,11.44
2023-04-06T03:38:46.676Z,11.41
2023-04-06T03:41:14.757Z,11.39
2023-04-06T03:43:46.927Z,11.47
2023-04-06T03:46:14.972Z,11.29
2023-04-06T03:48:41.751Z,11.38
2023-04-06T03:51:08.550Z,11.36
2023-04-06T03:53:35.346Z,11.21
2023-04-06T03:56:04.576Z,11.26
2023-04-06T03:58:32.046Z,11.20
2023-04-06T04:00:58.830Z,11.21
2023-04-06T04:03:28.216Z,11.22
2023-04-06T04:05:58.091Z,11.20
2023-04-06T04:08:26.148Z,11.17
2023-04-06T04:10:52.874Z,11.18
2023-04-06T04:13:20.853Z,11.16
2023-04-06T04:15:50.454Z,11.05
2023-04-06T04:18:17.376Z,10.82
2023-04-06T04:20:44.170Z,10.71
2023-04-06T04:23:12.321Z,10.77
2023-04-06T04:25:39.472Z,10.88
2023-04-06T04:28:06.997Z,10.83
2023-04-06T04:30:33.957Z,10.89
2023-04-06T04:33:00.748Z,10.88
2023-04-06T04:35:28.638Z,10.83
2023-04-06T04:37:55.479Z,10.79
2023-04-06T04:40:22.534Z,10.76
2023-04-06T04:43:06.956Z,10.85
2023-04-06T04:45:35.148Z,10.67
2023-04-06T04:48:14.511Z,10.47
2023-04-06T04:51:01.549Z,10.34
2023-04-06T04:53:38.234Z,10.36
2023-04-06T04:56:16.203Z,10.35
2023-04-06T04:58:44.509Z,10.35
2023-04-06T05:01:12.248Z,10.41
2023-04-06T05:03:40.805Z,10.43
2023-04-06T05:06:13.484Z,10.50
2023-04-06T05:08:42.533Z,10.60
2023-04-06T05:11:10.603Z,10.69
2023-04-06T05:13:42.322Z,10.79
2023-04-06T05:16:14.723Z,10.81
2023-04-06T05:18:41.860Z,10.88
2023-04-06T05:21:10.809Z,10.89
2023-04-06T05:23:57.913Z,10.90
2023-04-06T05:26:25.453Z,10.93
2023-04-06T05:28:56.148Z,10.94
2023-04-06T05:31:24.439Z,10.98
2023-04-06T05:33:51.827Z,10.90
2023-04-06T05:36:29.023Z,11.00
2023-04-06T05:38:56.880Z,11.09
2023-04-06T05:41:34.268Z,11.07
2023-04-06T05:44:01.563Z,11.06
2023-04-06T05:46:28.793Z,11.05
2023-04-06T05:48:58.745Z,11.05
2023-04-06T05:51:29.349Z,11.05
2023-04-06T05:53:56.193Z,11.05
2023-04-06T05:56:23.176Z,10.99
2023-04-06T05:58:49.980Z,10.93
2023-04-06T06:01:23.372Z,10.88
2023-04-06T06:03:50.291Z,10.74
2023-04-06T06:06:17.028Z,10.50
2023-04-06T06:09:04.646Z,10.27
2023-04-06T06:11:35.418Z,10.51
2023-04-06T06:14:03.851Z,10.78
2023-04-06T06:16:34.399Z,10.69
2023-04-06T06:19:01.184Z,10.87
2023-04-06T06:21:28.031Z,10.99
2023-04-06T06:23:55.654Z,11.23
2023-04-06T06:26:23.750Z,11.39
2023-04-06T06:28:50.969Z,11.73
2023-04-06T06:31:18.091Z,11.88
2023-04-06T06:33:45.086Z,12.06
2023-04-06T06:36:11.883Z,12.25
2023-04-06T06:38:39.893Z,12.43
2023-04-06T06:41:06.938Z,12.55
2023-04-06T06:43:36.082Z,12.58
2023-04-06T06:46:07.538Z,12.69
2023-04-06T06:48:34.431Z,12.50
2023-04-06T06:51:01.318Z,12.63
2023-04-06T06:53:28.310Z,12.91
2023-04-06T06:55:56.162Z,12.91
2023-04-06T06:58:23.858Z,13.00
2023-04-06T07:00:50.821Z,12.93
2023-04-06T07:03:17.630Z,13.05
2023-04-06T07:05:54.072Z,13.07
2023-04-06T07:08:24.068Z,13.22
2023-04-06T07:10:57.484Z,13.36
2023-04-06T07:13:25.124Z,13.46
2023-04-06T07:15:55.637Z,13.48
2023-04-06T07:18:23.621Z,13.38
2023-04-06T07:20:50.816Z,13.58
2023-04-06T07:23:18.180Z,13.55
2023-04-06T07:25:45.782Z,13.46
2023-04-06T07:28:12.668Z,13.58
2023-04-06T07:30:39.943Z,13.61
2023-04-06T07:33:08.679Z,13.55
2023-04-06T07:35:37.674Z,13.62
2023-04-06T07:38:05.687Z,13.73
2023-04-06T07:40:33.807Z,13.77
2023-04-06T07:43:00.782Z,13.83
2023-04-06T07:45:27.586Z,13.76
2023-04-06T07:47:55.147Z,13.75
2023-04-06T07:50:22.467Z,13.77
2023-04-06T07:52:49.497Z,13.84
2023-04-06T07:55:16.528Z,13.78
2023-04-06T07:57:43.261Z,13.65
2023-04-06T08:00:10.777Z,13.66
2023-04-06T08:02:40.561Z,13.60
2023-04-06T08:05:08.265Z,13.65
2023-04-06T08:07:35.392Z,13.81
2023-04-06T08:10:02.570Z,13.87
2023-04-06T08:12:29.322Z,13.93
2023-04-06T08:14:56.235Z,14.04
2023-04-06T08:17:23.041Z,14.22
2023-04-06T08:19:50.480Z,14.42
2023-04-06T08:22:17.220Z,14.62
2023-04-06T08:24:44.030Z,14.83
2023-04-06T08:27:11.083Z,14.95
2023-04-06T08:29:37.917Z,14.98
2023-04-06T08:32:06.150Z,15.12
2023-04-06T08:34:36.422Z,15.32
2023-04-06T08:37:03.303Z,15.41
2023-04-06T08:39:31.807Z,15.33
2023-04-06T08:42:00.844Z,15.44
2023-04-06T08:44:28.227Z,15.53
2023-04-06T08:46:55.871Z,15.51
2023-04-06T08:49:22.802Z,15.59
2023-04-06T08:51:50.391Z,15.47
2023-04-06T08:54:17.355Z,15.48
2023-04-06T08:56:44.455Z,15.52
2023-04-06T08:59:12.109Z,15.50
2023-04-06T09:01:44.431Z,15.58
2023-04-06T09:04:13.216Z,15.70
2023-04-06T09:06:41.790Z,15.90
2023-04-06T09:09:09.215Z,16.11
2023-04-06T09:11:47.591Z,16.31
2023-04-06T09:14:14.957Z,16.49
2023-04-06T09:16:43.329Z,16.62
2023-04-06T09:19:11.048Z,16.79
2023-04-06T09:21:39.249Z,17.07
2023-04-06T09:24:08.668Z,17.33
2023-04-06T09:26:48.636Z,17.54
2023-04-06T09:29:28.108Z,17.78
2023-04-06T09:32:04.433Z,17.90
2023-04-06T09:34:31.324Z,17.88
2023-04-06T09:36:59.353Z,17.68
2023-04-06T09:39:26.535Z,17.68
2023-04-06T09:41:55.274Z,17.67
2023-04-06T09:44:22.623Z,17.76
2023-04-06T09:46:58.789Z,17.78
2023-04-06T09:49:31.816Z,17.84
2023-04-06T09:52:01.348Z,17.93
2023-04-06T09:54:30.629Z,17.81
2023-04-06T09:57:05.162Z,17.99
2023-04-06T09:59:34.689Z,18.21
2023-04-06T10:02:03.356Z,18.27
2023-04-06T10:04:42.431Z,18.18
2023-04-06T10:07:12.112Z,18.41
2023-04-06T10:09:39.550Z,18.62
2023-04-06T10:12:07.407Z,18.60
2023-04-06T10:14:38.697Z,18.56
2023-04-06T10:17:05.986Z,18.53
2023-04-06T10:19:39.721Z,18.51
2023-04-06T10:22:09.681Z,18.55
2023-04-06T10:24:37.081Z,18.69
2023-04-06T10:27:04.836Z,18.67
2023-04-06T10:29:46.315Z,18.64
2023-04-06T10:32:13.593Z,18.83
2023-04-06T10:34:40.644Z,18.81
2023-04-06T10:37:17.710Z,18.82
2023-04-06T10:39:59.368Z,18.94
2023-04-06T10:42:26.896Z,18.99
2023-04-06T10:44:53.750Z,19.02
2023-04-06T10:47:20.656Z,19.02
2023-04-06T10:49:47.556Z,19.14
2023-04-06T10:52:14.596Z,18.95
2023-04-06T10:54:45.267Z,19.13
2023-04-06T10:57:13.647Z,19.19
2023-04-06T10:59:44.785Z,19.38
2023-04-06T11:02:21.826Z,19.49
2023-04-06T11:04:58.363Z,19.45
2023-04-06T11:07:27.361Z,19.39
2023-04-06T11:10:11.653Z,19.43
2023-04-06T11:12:39.798Z,19.55
2023-04-06T11:15:07.281Z,19.57
2023-04-06T11:17:38.046Z,19.64
2023-04-06T11:20:10.813Z,19.76
2023-04-06T11:22:37.666Z,19.55
2023-04-06T11:27:41.009Z,19.52
2023-04-06T11:30:08.534Z,19.42
2023-04-06T11:32:45.776Z,19.45
2023-04-06T11:35:23.583Z,19.54
2023-04-06T11:37:51.732Z,19.74
2023-04-06T11:40:25.785Z,19.80
2023-04-06T11:42:56.891Z,19.62
2023-04-06T11:45:24.149Z,19.77
2023-04-06T11:48:00.325Z,19.83
2023-04-06T11:50:34.806Z,20.00
2023-04-06T11:53:04.049Z,20.04
2023-04-06T11:55:38.323Z,20.11
2023-04-06T11:58:05.226Z,19.92
2023-04-06T12:00:35.565Z,19.94
2023-04-06T12:03:02.526Z,20.12
2023-04-06T12:05:29.533Z,20.01
2023-04-06T12:07:57.479Z,19.79
2023-04-06T12:10:25.839Z,19.84
2023-04-06T12:12:52.616Z,19.94
2023-04-06T12:15:19.365Z,19.95
2023-04-06T12:17:46.155Z,19.89
2023-04-06T12:20:22.597Z,19.99
2023-04-06T12:22:53.129Z,20.06
2023-04-06T12:25:19.987Z,20.04
2023-04-06T12:27:46.753Z,19.78
2023-04-06T12:30:13.724Z,20.03
2023-04-06T12:32:40.824Z,19.97
2023-04-06T12:35:09.876Z,20.05
2023-04-06T12:37:37.757Z,20.25
2023-04-06T12:40:05.327Z,20.16
2023-04-06T12:42:32.126Z,20.28
2023-04-06T12:44:58.928Z,20.34
2023-04-06T12:47:27.449Z,20.38
2023-04-06T12:49:55.093Z,20.11
2023-04-06T12:52:21.888Z,19.84
2023-04-06T12:54:50.130Z,19.76
2023-04-06T12:57:18.381Z,19.68
2023-04-06T12:59:45.702Z,19.44
2023-04-06T13:02:13.068Z,19.27
2023-04-06T13:04:40.061Z,19.26
2023-04-06T13:07:06.935Z,19.22
2023-04-06T13:09:33.749Z,19.21
2023-04-06T13:12:00.568Z,19.16
2023-04-06T13:14:27.401Z,19.12
2023-04-06T13:16:54.302Z,19.14
2023-04-06T13:19:21.254Z,19.28
2023-04-06T13:21:48.250Z,19.37
2023-04-06T13:24:16.561Z,19.47
2023-04-06T13:26:44.469Z,19.45
2023-04-06T13:29:11.290Z,19.47
2023-04-06T13:31:39.103Z,19.34
2023-04-06T13:34:06.512Z,19.41
2023-04-06T13:36:33.617Z,19.50
2023-04-06T13:39:00.485Z,19.48
2023-04-06T13:41:27.621Z,19.54
2023-04-06T13:43:54.414Z,19.60
2023-04-06T13:46:21.491Z,19.69
2023-04-06T13:48:49.020Z,19.62
2023-04-06T13:51:16.494Z,19.60
2023-04-06T13:53:43.660Z,19.63
2023-04-06T13:56:10.556Z,19.55
2023-04-06T13:58:37.478Z,19.53
2023-04-06T14:01:11.239Z,19.48
2023-04-06T14:03:40.393Z,19.51
2023-04-06T14:06:29.697Z,19.52
2023-04-06T14:08:58.256Z,19.56
2023-04-06T14:11:25.273Z,19.48
2023-04-06T14:13:52.147Z,19.53
2023-04-06T14:16:20.755Z,19.59
2023-04-06T14:18:47.623Z,19.66
2023-04-06T14:21:14.451Z,19.69
2023-04-06T14:23:41.578Z,19.74
2023-04-06T14:26:09.625Z,19.77
2023-04-06T14:28:36.927Z,19.85
2023-04-06T14:31:11.474Z,20.01
2023-04-06T14:33:38.273Z,19.91
2023-04-06T14:36:05.972Z,20.01
2023-04-06T14:38:33.410Z,20.00
2023-04-06T14:41:00.396Z,20.05
2023-04-06T14:43:27.436Z,19.97
2023-04-06T14:45:54.204Z,19.99
2023-04-06T14:48:20.987Z,20.03
2023-04-06T14:50:57.567Z,19.94
2023-04-06T14:53:24.880Z,19.98
2023-04-06T14:55:52.353Z,20.05
2023-04-06T14:58:20.445Z,20.11
2023-04-06T15:00:47.807Z,20.11
2023-04-06T15:03:15.050Z,20.04
2023-04-06T15:05:42.649Z,20.05
2023-04-06T15:08:12.705Z,20.12
2023-04-06T15:10:39.482Z,20.07
2023-04-06T15:13:06.269Z,20.02
2023-04-06T15:15:33.135Z,20.09
2023-04-06T15:18:03.344Z,20.12
2023-04-06T15:20:30.710Z,20.23
2023-04-06T15:22:57.865Z,20.29
2023-04-06T15:25:24.958Z,20.21
2023-04-06T15:27:51.815Z,20.28
2023-04-06T15:30:18.589Z,20.35
2023-04-06T15:32:55.965Z,20.44
2023-04-06T15:35:23.320Z,20.51
2023-04-06T15:37:50.372Z,20.51
2023-04-06T15:40:17.190Z,20.47
2023-04-06T15:42:44.311Z,20.42
2023-04-06T15:45:11.942Z,20.38
2023-04-06T15:47:39.833Z,20.55
2023-04-06T15:50:07.406Z,20.64
2023-04-06T15:52:35.312Z,20.61
2023-04-06T15:55:04.762Z,20.54
2023-04-06T15:57:31.650Z,20.39
2023-04-06T15:59:59.209Z,20.47
2023-04-06T16:02:26.210Z,20.51
2023-04-06T16:04:56.994Z,20.38
2023-04-06T16:07:23.921Z,20.56
2023-04-06T16:09:52.241Z,20.40
2023-04-06T16:12:19.834Z,20.49
2023-04-06T16:14:46.971Z,20.63
2023-04-06T16:17:14.232Z,20.50
2023-04-06T16:19:41.769Z,20.57
2023-04-06T16:22:09.944Z,20.59
2023-04-06T16:24:36.693Z,20.50
2023-04-06T16:27:03.929Z,20.75
2023-04-06T16:29:32.240Z,20.75
2023-04-06T16:31:59.021Z,20.84
2023-04-06T16:34:26.376Z,20.83
2023-04-06T16:36:53.248Z,20.75
2023-04-06T16:39:20.026Z,20.70
2023-04-06T16:41:47.382Z,20.64
2023-04-06T16:44:14.228Z,20.61
2023-04-06T16:46:41.478Z,20.65
2023-04-06T16:49:08.208Z,20.60
2023-04-06T16:51:37.032Z,20.66
2023-04-06T16:54:04.247Z,20.66
2023-04-06T16:56:32.346Z,20.58
2023-04-06T16:58:59.335Z,20.60
2023-04-06T17:01:28.732Z,20.63
2023-04-06T17:03:56.538Z,20.73
2023-04-06T17:06:24.192Z,20.64
2023-04-06T17:08:51.376Z,20.73
2023-04-06T17:11:23.416Z,20.64
2023-04-06T17:13:54.840Z,20.66
2023-04-06T17:16:25.513Z,20.59
2023-04-06T17:18:53.231Z,20.52
2023-04-06T17:21:21.029Z,20.34
2023-04-06T17:23:48.534Z,20.22
2023-04-06T17:26:16.088Z,20.14
2023-04-06T17:28:43.261Z,20.02
2023-04-06T17:31:11.748Z,19.90
2023-04-06T17:33:39.732Z,19.69
2023-04-06T17:36:08.369Z,19.46
2023-04-06T17:38:35.618Z,19.40
2023-04-06T17:41:05.050Z,19.17
2023-04-06T17:43:32.320Z,19.13
2023-04-06T17:45:59.580Z,19.03
2023-04-06T17:48:27.763Z,19.01
2023-04-06T17:50:54.639Z,18.96
2023-04-06T17:53:21.444Z,18.97
2023-04-06T17:55:48.163Z,18.85
2023-04-06T17:58:14.969Z,18.79
2023-04-06T18:00:41.679Z,18.65
2023-04-06T18:03:08.534Z,18.60
2023-04-06T18:05:35.507Z,18.40
2023-04-06T18:08:02.276Z,18.31
2023-04-06T18:10:28.994Z,18.25
2023-04-06T18:12:55.762Z,18.21
2023-04-06T18:15:22.605Z,18.10
2023-04-06T18:17:50.947Z,18.07
2023-04-06T18:20:17.791Z,17.88
2023-04-06T18:22:44.562Z,17.85
2023-04-06T18:25:12.938Z,17.79
2023-04-06T18:27:39.723Z,17.73
2023-04-06T18:30:07.095Z,17.72
2023-04-06T18:32:34.114Z,17.65
2023-04-06T18:35:01.056Z,17.64
2023-04-06T18:37:27.792Z,17.61
2023-04-06T18:39:54.753Z,17.54
2023-04-06T18:42:21.672Z,17.49
2023-04-06T18:44:48.473Z,17.49
2023-04-06T18:47:15.683Z,17.44
2023-04-06T18:49:42.664Z,17.42
2023-04-06T18:52:09.424Z,17.37
2023-04-06T18:54:36.138Z,17.36
2023-04-06T18:57:03.345Z,17.33
2023-04-06T18:59:30.565Z,17.31
2023-04-06T19:01:58.676Z,17.29
2023-04-06T19:04:25.996Z,17.29
2023-04-06T19:06:52.998Z,17.28
2023-04-06T19:09:19.760Z,17.21
2023-04-06T19:11:46.753Z,17.24
2023-04-06T19:14:14.508Z,17.21
2023-04-06T19:16:51.964Z,17.20
2023-04-06T19:19:19.559Z,17.17
2023-04-06T19:21:46.718Z,17.18
2023-04-06T19:24:13.502Z,17.16
2023-04-06T19:26:40.240Z,17.16
2023-04-06T19:29:06.989Z,17.11
2023-04-06T19:31:33.766Z,17.08
2023-04-06T19:34:00.515Z,17.09
2023-04-06T19:36:28.387Z,17.07
2023-04-06T19:38:55.613Z,17.07
2023-04-06T19:41:22.465Z,17.07
2023-04-06T19:43:49.599Z,17.06
2023-04-06T19:46:16.444Z,17.05
2023-04-06T19:48:43.398Z,17.09
2023-04-06T19:51:10.282Z,17.04
2023-04-06T19:53:37.779Z,17.03
2023-04-06T19:56:04.704Z,16.99
2023-04-06T19:58:31.873Z,17.00
2023-04-06T20:00:58.628Z,16.96
2023-04-06T20:03:25.555Z,16.95
2023-04-06T20:05:52.372Z,16.94
2023-04-06T20:08:19.250Z,16.93
2023-04-06T20:10:46.283Z,16.95
2023-04-06T20:13:13.098Z,16.94
2023-04-06T20:15:39.998Z,16.85
2023-04-06T20:18:06.878Z,16.84
2023-04-06T20:20:33.678Z,16.84
2023-04-06T20:23:00.430Z,16.83
2023-04-06T20:25:27.235Z,16.83
2023-04-06T20:27:54.218Z,16.82
2023-04-06T20:30:21.390Z,16.79
2023-04-06T20:32:48.137Z,16.78
2023-04-06T20:35:14.974Z,16.79
2023-04-06T20:37:41.980Z,16.78
2023-04-06T20:40:09.150Z,16.76
2023-04-06T20:42:37.200Z,16.79
2023-04-06T20:45:04.706Z,16.73
2023-04-06T20:47:31.980Z,16.71
2023-04-06T20:49:58.927Z,16.72
2023-04-06T20:52:26.726Z,16.69
2023-04-06T20:54:54.726Z,16.70
2023-04-06T20:57:21.504Z,16.70
2023-04-06T20:59:48.249Z,16.67
2023-04-06T21:02:15.562Z,16.62
2023-04-06T21:04:43.365Z,16.60
2023-04-06T21:07:10.885Z,16.63
2023-04-06T21:09:39.237Z,16.59
2023-04-06T21:12:07.096Z,16.61
2023-04-06T21:14:34.357Z,16.59
2023-04-06T21:17:01.121Z,16.58
2023-04-06T21:19:28.128Z,16.54
2023-04-06T21:21:55.276Z,16.50
2023-04-06T21:24:22.045Z,16.44
2023-04-06T21:26:49.334Z,16.42
2023-04-06T21:29:16.095Z,16.37
2023-04-06T21:31:43.099Z,16.40
2023-04-06T21:34:11.585Z,16.39
2023-04-06T21:36:39.091Z,16.40
2023-04-06T21:39:06.673Z,16.41
2023-04-06T21:41:34.518Z,16.38
2023-04-06T21:44:01.416Z,16.27
2023-04-06T21:46:28.355Z,16.28
2023-04-06T21:48:55.194Z,16.23
2023-04-06T21:51:22.908Z,16.22
2023-04-06T21:53:49.969Z,16.13
2023-04-06T21:56:22.053Z,16.16
2023-04-06T21:58:48.920Z,16.04
2023-04-06T22:01:15.731Z,16.01
2023-04-06T22:03:42.853Z,16.03
2023-04-06T22:06:10.523Z,16.00
2023-04-06T22:08:37.281Z,15.94
2023-04-06T22:11:09.286Z,15.90
2023-04-06T22:13:36.270Z,15.89
2023-04-06T22:16:04.193Z,15.67
2023-04-06T22:18:31.271Z,15.75
2023-04-06T22:20:58.261Z,15.76
2023-04-06T22:23:25.588Z,15.72
2023-04-06T22:25:53.290Z,15.69
2023-04-06T22:28:20.132Z,15.62
2023-04-06T22:30:46.910Z,15.60
2023-04-06T22:33:13.798Z,15.21
2023-04-06T22:35:40.730Z,15.08
2023-04-06T22:38:07.896Z,15.17
2023-04-06T22:40:34.732Z,15.00
2023-04-06T22:43:02.708Z,14.94
2023-04-06T22:45:29.469Z,14.92
2023-04-06T22:47:56.224Z,15.01
2023-04-06T22:50:23.046Z,15.04
2023-04-06T22:52:49.959Z,15.05
2023-04-06T22:55:16.972Z,14.98
2023-04-06T22:57:43.754Z,14.91
2023-04-06T23:00:11.874Z,14.97
2023-04-06T23:02:38.877Z,14.90
2023-04-06T23:05:06.430Z,14.84
2023-04-06T23:07:35.544Z,14.82
2023-04-06T23:10:03.339Z,14.81
2023-04-06T23:12:30.337Z,14.73
2023-04-06T23:14:57.233Z,14.63
2023-04-06T23:17:24.153Z,14.53
2023-04-06T23:19:51.434Z,14.33
2023-04-06T23:22:18.217Z,14.26
2023-04-06T23:24:44.981Z,14.16
2023-04-06T23:27:11.715Z,14.18
2023-04-06T23:29:38.415Z,14.26
2023-04-06T23:32:05.690Z,14.16
2023-04-06T23:34:32.506Z,14.11
2023-04-06T23:37:02.869Z,14.12
2023-04-06T23:39:30.497Z,14.14
2023-04-06T23:42:01.565Z,14.20
2023-04-06T23:44:31.454Z,14.16
2023-04-06T23:46:58.301Z,13.92
2023-04-06T23:49:25.148Z,13.92
2023-04-06T23:51:51.908Z,13.85
2023-04-06T23:54:18.711Z,13.84
2023-04-06T23:56:46.414Z,13.78
2023-04-06T23:59:13.247Z,13.63
